Time;durP1;ratioP1;P1;durP2;ratioP2;P2;SDS_P1;SDS_P2;PMS_P1;PMS_P2;Temp;Humidity;BMP_temperature;BMP_pressure;BME280_temperature;BME280_humidity;BME280_pressure;Samples;Min_cycle;Max_cycle;Signal;HPM_P1;HPM_P2
2021/06/01 00:00:16;;;;;;;3.08;1.70;;;16.00;96.70;;;;;;5096385;28;20029;-81
2021/06/01 00:02:42;;;;;;;5.40;2.92;;;15.90;96.80;;;;;;5087458;28;20031;-81
2021/06/01 00:05:08;;;;;;;2.60;2.25;;;15.90;97.10;;;;;;5094211;28;20032;-81
2021/06/01 00:07:35;;;;;;;8.02;1.98;;;15.90;97.10;;;;;;5086411;28;20032;-80
2021/06/01 00:10:01;;;;;;;1.85;1.50;;;15.90;97.10;;;;;;5073365;28;20039;-81
2021/06/01 00:12:26;;;;;;;3.15;1.50;;;15.80;97.10;;;;;;5075734;28;20028;-82
2021/06/01 00:14:52;;;;;;;3.03;1.75;;;15.80;97.10;;;;;;5078972;28;20132;-83
2021/06/01 00:17:18;;;;;;;5.28;1.60;;;15.80;97.00;;;;;;5075507;28;20120;-79
2021/06/01 00:19:43;;;;;;;2.22;1.80;;;15.70;97.10;;;;;;5071505;28;20401;-81
2021/06/01 00:22:09;;;;;;;2.42;1.90;;;15.70;97.30;;;;;;5067165;28;20041;-82
2021/06/01 00:24:35;;;;;;;1.98;1.50;;;15.60;97.10;;;;;;5076389;28;20041;-81
2021/06/01 00:27:02;;;;;;;4.43;1.83;;;15.70;97.10;;;;;;5075226;28;20477;-81
2021/06/01 00:29:27;;;;;;;1.80;1.70;;;15.60;97.10;;;;;;5073124;28;20041;-82
2021/06/01 00:31:53;;;;;;;3.60;1.67;;;15.60;97.00;;;;;;5075154;28;20635;-81
2021/06/01 00:34:19;;;;;;;1.75;1.60;;;15.60;96.90;;;;;;5070305;28;20023;-81
2021/06/01 00:36:45;;;;;;;1.80;1.50;;;15.60;96.80;;;;;;5072991;28;20565;-81
2021/06/01 00:39:11;;;;;;;2.08;1.70;;;15.60;96.90;;;;;;5073528;28;20035;-80
2021/06/01 00:41:37;;;;;;;12.63;2.42;;;15.50;96.80;;;;;;5073752;28;20400;-81
2021/06/01 00:44:03;;;;;;;9.02;1.88;;;15.50;97.00;;;;;;5072434;28;20045;-81
2021/06/01 00:46:29;;;;;;;4.47;1.80;;;15.50;97.00;;;;;;5072467;28;20480;-82
2021/06/01 00:48:55;;;;;;;3.33;1.83;;;15.40;97.20;;;;;;5073224;28;20028;-81
2021/06/01 00:51:20;;;;;;;1.88;1.38;;;15.40;97.20;;;;;;5055884;28;20139;-81
2021/06/01 00:53:46;;;;;;;1.77;1.65;;;15.30;97.30;;;;;;5069041;28;20028;-81
2021/06/01 00:56:12;;;;;;;2.50;1.80;;;15.30;97.20;;;;;;5071738;28;20028;-80
2021/06/01 00:58:37;;;;;;;4.05;1.70;;;15.30;97.20;;;;;;5071434;28;20024;-80
2021/06/01 01:01:18;;;;;;;2.15;1.50;;;15.30;97.30;;;;;;5068269;28;20028;-80
2021/06/01 01:03:44;;;;;;;4.65;1.52;;;15.20;97.30;;;;;;5071597;28;20035;-81
2021/06/01 01:06:31;;;;;;;1.65;1.55;;;15.20;97.10;;;;;;5073321;28;20029;-80
2021/06/01 01:09:01;;;;;;;4.73;1.80;;;15.20;97.00;;;;;;5072739;28;20029;-79
2021/06/01 01:11:42;;;;;;;6.35;1.80;;;15.20;96.80;;;;;;5059657;28;20710;-80
2021/06/01 01:14:18;;;;;;;8.15;1.75;;;15.20;96.70;;;;;;5069302;28;20095;-79
2021/06/01 01:17:10;;;;;;;3.28;1.20;;;15.20;96.80;;;;;;5065474;28;20028;-80
2021/06/01 01:20:16;;;;;;;3.35;1.48;;;15.20;97.10;;;;;;5068792;28;20053;-80
2021/06/01 01:22:45;;;;;;;1.42;1.33;;;15.20;96.80;;;;;;5074459;28;20033;-80
2021/06/01 01:25:29;;;;;;;1.63;1.50;;;15.10;97.00;;;;;;5076343;28;20025;-80
2021/06/01 01:28:06;;;;;;;2.25;1.60;;;15.20;96.70;;;;;;5075976;28;20044;-80
2021/06/01 01:30:54;;;;;;;2.20;1.55;;;15.20;96.50;;;;;;5075797;28;20048;-80
2021/06/01 01:33:33;;;;;;;4.28;2.05;;;15.20;96.70;;;;;;5076000;28;20032;-80
2021/06/01 01:36:02;;;;;;;3.22;1.58;;;15.10;96.60;;;;;;5064017;28;20017;-80
2021/06/01 01:38:29;;;;;;;2.78;1.98;;;15.10;96.70;;;;;;5074533;28;20397;-78
2021/06/01 01:40:59;;;;;;;2.72;1.58;;;15.10;96.70;;;;;;5074693;28;20112;-80
2021/06/01 01:43:27;;;;;;;3.05;1.90;;;15.10;96.70;;;;;;5076358;28;20077;-81
2021/06/01 01:46:04;;;;;;;3.28;1.45;;;15.10;96.70;;;;;;5074488;28;20036;-80
2021/06/01 01:51:16;;;;;;;2.20;1.65;;;15.10;96.60;;;;;;5075915;28;20124;-79
2021/06/01 01:53:56;;;;;;;2.37;1.60;;;15.10;96.60;;;;;;5074766;28;20113;-80
2021/06/01 01:56:23;;;;;;;3.40;1.60;;;15.10;96.60;;;;;;5075642;28;20282;-80
2021/06/01 01:58:50;;;;;;;;;;;15.10;96.50;;;;;;5076043;28;20111;-80
2021/06/01 02:01:16;;;;;;;2.45;1.75;;;15.10;96.50;;;;;;5072473;28;19909;-80
2021/06/01 02:03:43;;;;;;;1.30;1.20;;;15.00;96.50;;;;;;5063384;28;20016;-80
2021/06/01 02:06:09;;;;;;;1.60;1.40;;;15.00;96.40;;;;;;5067834;28;20032;-80
2021/06/01 02:08:39;;;;;;;2.20;1.98;;;15.00;96.80;;;;;;5075922;28;20059;-80
2021/06/01 02:11:05;;;;;;;5.18;1.80;;;15.00;96.50;;;;;;5073736;28;20537;-80
2021/06/01 02:13:32;;;;;;;6.22;1.60;;;15.00;96.60;;;;;;5075161;28;20029;-79
2021/06/01 02:15:58;;;;;;;1.63;1.40;;;15.00;96.70;;;;;;5071854;28;20024;-80
2021/06/01 02:18:23;;;;;;;2.83;1.30;;;15.00;96.50;;;;;;5073615;28;20020;-80
2021/06/01 02:20:52;;;;;;;2.65;1.38;;;15.00;96.60;;;;;;5074036;28;20020;-81
2021/06/01 02:23:49;;;;;;;2.45;1.63;;;15.00;96.60;;;;;;5073773;28;20051;-80
2021/06/01 02:26:51;;;;;;;1.85;1.75;;;14.90;96.60;;;;;;5074437;28;20448;-80
2021/06/01 02:29:35;;;;;;;2.35;1.40;;;14.90;96.70;;;;;;5055223;28;20049;-80
2021/06/01 02:32:02;;;;;;;5.13;1.73;;;14.90;96.70;;;;;;5066296;28;20035;-80
2021/06/01 02:34:29;;;;;;;1.38;1.20;;;14.90;96.60;;;;;;5074811;28;20031;-80
2021/06/01 02:36:55;;;;;;;5.45;1.58;;;14.90;96.70;;;;;;5073775;28;20044;-80
2021/06/01 02:39:22;;;;;;;3.13;1.45;;;14.80;96.80;;;;;;5075727;28;20388;-80
2021/06/01 02:41:49;;;;;;;2.50;1.10;;;14.80;96.80;;;;;;5073330;28;20037;-80
2021/06/01 02:44:15;;;;;;;2.00;1.80;;;14.80;96.80;;;;;;5073677;28;20060;-80
2021/06/01 02:46:42;;;;;;;1.55;1.20;;;14.80;96.70;;;;;;5074452;28;20086;-80
2021/06/01 02:49:09;;;;;;;3.35;1.95;;;14.70;96.80;;;;;;5065561;28;20077;-81
2021/06/01 02:51:36;;;;;;;2.53;1.47;;;14.70;96.90;;;;;;5074078;28;20456;-79
2021/06/01 02:54:05;;;;;;;2.10;1.70;;;14.70;97.00;;;;;;5069232;28;20277;-79
2021/06/01 02:56:31;;;;;;;5.78;1.75;;;14.60;97.10;;;;;;5072634;28;20120;-80
2021/06/01 02:58:58;;;;;;;4.45;1.55;;;14.60;97.20;;;;;;5070625;28;20024;-80
2021/06/01 03:01:25;;;;;;;2.72;1.50;;;14.50;97.30;;;;;;5072449;28;20028;-80
2021/06/01 03:03:52;;;;;;;1.75;1.55;;;14.50;97.30;;;;;;5073604;28;20534;-80
2021/06/01 03:06:19;;;;;;;1.98;1.42;;;14.50;97.40;;;;;;5067362;28;20025;-80
2021/06/01 03:08:45;;;;;;;1.95;1.83;;;14.40;97.40;;;;;;5063569;28;20389;-80
2021/06/01 03:11:15;;;;;;;5.00;1.42;;;14.50;97.40;;;;;;5059372;28;20025;-78
2021/06/01 03:13:40;;;;;;;5.97;1.65;;;14.50;97.50;;;;;;5073622;28;20477;-80
2021/06/01 03:16:06;;;;;;;1.60;1.50;;;14.40;97.70;;;;;;5071772;28;20027;-80
2021/06/01 03:18:32;;;;;;;3.88;1.90;;;14.40;97.60;;;;;;5070722;28;20127;-80
2021/06/01 03:20:58;;;;;;;1.95;1.75;;;14.40;97.80;;;;;;5072031;28;20028;-81
2021/06/01 03:23:24;;;;;;;2.17;1.90;;;14.40;97.90;;;;;;5070912;28;20027;-80
2021/06/01 03:25:50;;;;;;;2.67;2.22;;;14.30;97.90;;;;;;5074049;28;20111;-80
2021/06/01 03:28:16;;;;;;;2.05;1.85;;;14.30;98.10;;;;;;5070425;28;20520;-80
2021/06/01 03:30:42;;;;;;;18.15;4.65;;;14.20;98.10;;;;;;5060524;28;20025;-80
2021/06/01 03:33:08;;;;;;;9.23;1.80;;;14.20;98.10;;;;;;5083055;28;20103;-80
2021/06/01 03:35:34;;;;;;;2.33;1.88;;;14.20;98.30;;;;;;5073792;28;20036;-80
2021/06/01 03:38:00;;;;;;;3.13;2.10;;;14.20;98.40;;;;;;5072138;28;20039;-80
2021/06/01 03:40:26;;;;;;;3.33;2.05;;;14.10;98.50;;;;;;5068740;28;20054;-80
2021/06/01 03:42:52;;;;;;;2.17;1.77;;;14.10;98.60;;;;;;5068370;28;20028;-80
2021/06/01 03:45:19;;;;;;;4.55;1.90;;;14.10;98.70;;;;;;5067228;28;20020;-81
2021/06/01 03:47:45;;;;;;;1.50;1.40;;;14.00;98.80;;;;;;5068257;28;20085;-79
2021/06/01 03:50:11;;;;;;;6.75;1.85;;;14.00;98.80;;;;;;5072797;28;20475;-80
2021/06/01 03:52:36;;;;;;;3.38;1.88;;;14.00;98.80;;;;;;5066287;28;20028;-80
2021/06/01 03:55:04;;;;;;;3.53;1.83;;;14.10;98.90;;;;;;5070793;28;20174;-80
2021/06/01 03:57:30;;;;;;;2.90;2.17;;;14.10;98.80;;;;;;5072415;28;20111;-80
2021/06/01 03:59:56;;;;;;;3.03;2.03;;;14.10;98.70;;;;;;5068858;28;20021;-81
2021/06/01 04:02:22;;;;;;;3.50;1.90;;;14.20;98.70;;;;;;5059263;28;20032;-80
2021/06/01 04:04:49;;;;;;;2.67;1.80;;;14.20;98.70;;;;;;5073502;28;20472;-80
2021/06/01 04:07:16;;;;;;;3.63;1.30;;;14.20;98.80;;;;;;5054114;28;20056;-81
2021/06/01 04:09:42;;;;;;;3.00;1.92;;;14.30;98.80;;;;;;5061247;28;20694;-81
2021/06/01 04:12:09;;;;;;;3.78;2.08;;;14.30;98.70;;;;;;5072587;28;20032;-79
2021/06/01 04:14:34;;;;;;;2.53;1.75;;;14.50;98.30;;;;;;5069684;28;20013;-80
2021/06/01 04:17:00;;;;;;;5.20;2.05;;;14.60;98.10;;;;;;5068045;28;20028;-79
2021/06/01 04:19:26;;;;;;;2.10;1.77;;;14.80;97.70;;;;;;5072198;28;20052;-81
2021/06/01 04:21:52;;;;;;;4.93;2.10;;;14.90;97.70;;;;;;5073392;28;20047;-81
2021/06/01 04:24:19;;;;;;;3.22;2.20;;;15.00;97.40;;;;;;5073746;28;20480;-81
2021/06/01 04:26:45;;;;;;;6.47;1.98;;;15.10;97.50;;;;;;5073566;28;20043;-80
2021/06/01 04:29:10;;;;;;;1.98;1.42;;;15.20;97.30;;;;;;5085239;28;20048;-81
2021/06/01 04:31:38;;;;;;;4.45;1.63;;;15.20;97.30;;;;;;5086332;28;20039;-80
2021/06/01 04:34:04;;;;;;;;;;;15.30;97.20;;;;;;5089821;28;20209;-81
2021/06/01 04:36:29;;;;;;;3.17;1.95;;;15.30;97.10;;;;;;5089925;28;19916;-80
2021/06/01 04:38:55;;;;;;;3.92;2.33;;;15.40;96.90;;;;;;5091188;28;20028;-79
2021/06/01 04:41:21;;;;;;;3.20;2.45;;;15.40;96.80;;;;;;5092353;28;20092;-78
2021/06/01 04:43:47;;;;;;;4.78;1.67;;;15.50;96.90;;;;;;5094581;28;20028;-78
2021/06/01 04:46:12;;;;;;;9.07;2.03;;;15.50;96.80;;;;;;5094458;28;20036;-80
2021/06/01 04:48:38;;;;;;;3.22;2.25;;;15.50;96.90;;;;;;5091644;28;20072;-79
2021/06/01 04:51:04;;;;;;;3.70;2.05;;;15.60;96.80;;;;;;5086870;28;20016;-79
2021/06/01 04:53:29;;;;;;;2.67;1.80;;;15.70;96.70;;;;;;5092099;28;20028;-78
2021/06/01 04:55:55;;;;;;;4.35;2.28;;;15.70;96.80;;;;;;5085292;28;20032;-77
2021/06/01 04:58:21;;;;;;;2.53;1.90;;;15.70;96.60;;;;;;5092834;28;20134;-75
2021/06/01 05:00:46;;;;;;;4.93;2.25;;;15.70;96.90;;;;;;5078519;28;20021;-80
2021/06/01 05:03:12;;;;;;;2.88;2.00;;;15.80;96.90;;;;;;5061422;28;20029;-79
2021/06/01 05:05:37;;;;;;;3.80;2.05;;;15.80;96.90;;;;;;5071019;28;20496;-79
2021/06/01 05:08:04;;;;;;;3.50;2.20;;;15.90;96.70;;;;;;5072300;28;20021;-80
2021/06/01 05:10:29;;;;;;;2.67;1.90;;;16.00;96.60;;;;;;5072108;28;20021;-79
2021/06/01 05:12:55;;;;;;;2.50;1.60;;;16.00;96.50;;;;;;5068004;28;20040;-79
2021/06/01 05:15:23;;;;;;;4.07;1.98;;;16.10;96.50;;;;;;5062950;28;20017;-81
2021/06/01 05:17:49;;;;;;;9.27;2.30;;;16.20;96.60;;;;;;5070403;28;20036;-81
2021/06/01 05:20:18;;;;;;;7.80;2.10;;;16.40;96.50;;;;;;5062587;28;20025;-77
2021/06/01 05:22:43;;;;;;;3.03;2.22;;;16.60;96.10;;;;;;5063240;28;20029;-80
2021/06/01 05:25:11;;;;;;;4.88;2.20;;;16.70;96.00;;;;;;5066982;28;20472;-79
2021/06/01 05:27:37;;;;;;;2.83;1.88;;;16.80;95.80;;;;;;5070891;28;20029;-79
2021/06/01 05:30:05;;;;;;;2.30;2.10;;;16.90;96.00;;;;;;5069709;28;20033;-81
2021/06/01 05:35:16;;;;;;;6.82;2.35;;;17.80;94.90;;;;;;5059877;28;20034;-78
2021/06/01 05:37:52;;;;;;;6.35;2.53;;;17.70;94.90;;;;;;5051370;28;20021;-80
2021/06/01 05:40:18;;;;;;;14.43;2.95;;;17.60;94.90;;;;;;5055276;28;20033;-79
2021/06/01 05:42:44;;;;;;;2.85;2.03;;;17.50;95.20;;;;;;5070480;28;20439;-80
2021/06/01 05:45:10;;;;;;;5.20;1.95;;;17.40;95.30;;;;;;5072216;28;20024;-80
2021/06/01 05:47:36;;;;;;;4.60;2.60;;;17.40;95.20;;;;;;5072519;28;20033;-78
2021/06/01 05:50:03;;;;;;;3.10;1.92;;;17.40;95.30;;;;;;5072246;28;20104;-79
2021/06/01 05:52:29;;;;;;;7.53;2.35;;;17.40;95.30;;;;;;5072513;28;20028;-79
2021/06/01 05:54:54;;;;;;;2.92;1.70;;;17.50;95.40;;;;;;5072452;28;20104;-81
2021/06/01 05:57:20;;;;;;;8.95;2.92;;;17.70;95.20;;;;;;5071778;28;20052;-80
2021/06/01 05:59:46;;;;;;;6.75;2.15;;;17.90;95.20;;;;;;5065701;28;20032;-79
2021/06/01 06:02:12;;;;;;;2.83;2.17;;;18.30;94.40;;;;;;5075118;28;20033;-80
2021/06/01 06:04:37;;;;;;;6.32;2.30;;;18.70;94.00;;;;;;5074174;28;20075;-79
2021/06/01 06:07:04;;;;;;;3.97;2.30;;;19.20;93.50;;;;;;5070280;28;20024;-79
2021/06/01 06:09:29;;;;;;;4.78;2.10;;;20.20;93.10;;;;;;5073395;28;20044;-80
2021/06/01 06:11:56;;;;;;;5.82;2.40;;;21.10;91.90;;;;;;5073754;28;20044;-80
2021/06/01 06:14:22;;;;;;;6.40;2.53;;;20.80;91.70;;;;;;5068412;28;20032;-77
2021/06/01 06:16:51;;;;;;;5.35;2.38;;;20.30;92.00;;;;;;5075764;28;20388;-79
2021/06/01 06:19:17;;;;;;;12.30;3.47;;;20.20;91.90;;;;;;5075132;28;20361;-80
2021/06/01 06:21:42;;;;;;;3.53;1.92;;;20.80;92.10;;;;;;5075217;28;20028;-79
2021/06/01 06:24:08;;;;;;;5.25;1.88;;;22.00;91.00;;;;;;5073076;28;20122;-81
2021/06/01 06:26:34;;;;;;;10.35;1.80;;;23.10;89.20;;;;;;5067240;28;20086;-81
2021/06/01 06:29:00;;;;;;;6.82;2.30;;;24.20;87.70;;;;;;5073332;28;20040;-80
2021/06/01 06:31:25;;;;;;;5.63;1.90;;;25.00;85.10;;;;;;5075432;28;20435;-79
2021/06/01 06:33:51;;;;;;;10.63;3.30;;;25.60;84.20;;;;;;5074928;28;20041;-80
2021/06/01 06:36:17;;;;;;;2.88;2.33;;;25.70;83.00;;;;;;5074047;28;20028;-80
2021/06/01 06:38:46;;;;;;;5.05;2.38;;;26.20;83.10;;;;;;5073560;28;20034;-80
2021/06/01 06:41:16;;;;;;;3.97;2.00;;;26.50;82.30;;;;;;5065234;28;20529;-79
2021/06/01 06:43:46;;;;;;;2.38;1.85;;;26.50;81.00;;;;;;5070775;28;20039;-80
2021/06/01 06:48:57;;;;;;;5.57;1.85;;;27.50;80.30;;;;;;5071221;28;20042;-80
2021/06/01 06:51:26;;;;;;;7.40;2.38;;;27.50;79.00;;;;;;5073257;28;20107;-79
2021/06/01 06:53:56;;;;;;;7.22;2.20;;;26.60;80.10;;;;;;5074966;28;20480;-79
2021/06/01 06:56:27;;;;;;;5.63;1.83;;;25.20;81.30;;;;;;5071895;28;20504;-79
2021/06/01 06:58:54;;;;;;;2.47;2.05;;;23.70;83.30;;;;;;5068875;28;20404;-79
2021/06/01 07:01:20;;;;;;;2.47;1.90;;;22.80;85.40;;;;;;5073687;28;20039;-79
2021/06/01 07:03:46;;;;;;;8.50;2.28;;;22.50;86.10;;;;;;5073755;28;20091;-79
2021/06/01 07:06:12;;;;;;;5.07;2.15;;;23.10;85.50;;;;;;5074538;28;20036;-79
2021/06/01 07:08:37;;;;;;;4.10;2.10;;;24.00;84.70;;;;;;5073117;28;20016;-80
2021/06/01 07:11:03;;;;;;;3.63;1.85;;;24.60;83.00;;;;;;5073041;28;20020;-80
2021/06/01 07:13:51;;;;;;;11.77;2.35;;;25.30;82.30;;;;;;5071068;28;20089;-78
2021/06/01 07:16:18;;;;;;;5.32;2.25;;;25.70;81.90;;;;;;5069301;28;20461;-79
2021/06/01 07:18:44;;;;;;;3.40;2.10;;;26.00;81.60;;;;;;5071920;28;20028;-79
2021/06/01 07:21:14;;;;;;;2.70;2.10;;;26.00;81.00;;;;;;5072562;28;20111;-79
2021/06/01 07:23:40;;;;;;;5.20;1.80;;;26.10;80.60;;;;;;5061217;28;20029;-79
2021/06/01 07:26:07;;;;;;;5.22;1.98;;;26.20;81.30;;;;;;5071626;28;20056;-80
2021/06/01 07:28:33;;;;;;;6.90;2.58;;;26.30;81.40;;;;;;5073443;28;20401;-78
2021/06/01 07:31:00;;;;;;;4.18;2.75;;;26.20;80.80;;;;;;5072986;28;20040;-79
2021/06/01 07:33:26;;;;;;;3.30;1.90;;;26.20;81.50;;;;;;5069688;28;20097;-80
2021/06/01 07:35:52;;;;;;;5.25;2.08;;;25.90;81.00;;;;;;5070393;28;20490;-85
2021/06/01 07:38:17;;;;;;;2.85;2.20;;;25.40;81.40;;;;;;5073226;28;20020;-80
2021/06/01 07:40:43;;;;;;;3.40;2.15;;;24.90;81.30;;;;;;5074574;28;20027;-78
2021/06/01 07:43:08;;;;;;;2.70;1.95;;;24.60;83.40;;;;;;5074144;28;20028;-79
2021/06/01 07:45:35;;;;;;;4.45;2.00;;;24.30;84.80;;;;;;5073424;28;20435;-79
2021/06/01 07:48:01;;;;;;;3.10;2.35;;;24.20;84.40;;;;;;5073503;28;20035;-83
2021/06/01 07:50:26;;;;;;;2.88;2.33;;;24.20;83.40;;;;;;5071571;28;20040;-74
2021/06/01 07:52:52;;;;;;;4.60;1.88;;;24.20;82.80;;;;;;5070386;28;20039;-78
2021/06/01 07:55:18;;;;;;;3.33;1.83;;;24.30;82.30;;;;;;5070539;28;20024;-78
2021/06/01 07:57:44;;;;;;;5.53;2.15;;;24.50;83.50;;;;;;5072527;28;20496;-78
2021/06/01 08:00:12;;;;;;;4.80;1.95;;;24.90;83.30;;;;;;5071594;28;20029;-78
2021/06/01 08:02:38;;;;;;;4.85;1.90;;;25.20;82.60;;;;;;5068095;28;20097;-78
2021/06/01 08:05:06;;;;;;;5.53;2.20;;;25.50;83.00;;;;;;5071797;28;20036;-78
2021/06/01 08:07:33;;;;;;;;;;;25.70;81.60;;;;;;5059777;28;20082;-79
2021/06/01 08:09:58;;;;;;;3.22;1.45;;;25.90;81.00;;;;;;5068319;28;19913;-79
2021/06/01 08:12:24;;;;;;;2.67;1.85;;;26.30;79.80;;;;;;5068348;28;20182;-78
2021/06/01 08:14:52;;;;;;;2.30;2.10;;;26.60;79.50;;;;;;5058766;28;20500;-79
2021/06/01 08:17:17;;;;;;;4.88;2.10;;;26.80;79.60;;;;;;5057531;28;20113;-79
2021/06/01 08:19:45;;;;;;;3.75;1.60;;;27.10;79.20;;;;;;5068824;28;20094;-79
2021/06/01 08:24:48;;;;;;;2.47;1.80;;;27.40;78.30;;;;;;5073885;28;20032;-79
2021/06/01 08:27:14;;;;;;;1.65;1.55;;;27.80;75.60;;;;;;5073286;28;20036;-78
2021/06/01 08:29:40;;;;;;;3.05;1.77;;;27.80;77.20;;;;;;5072828;28;20124;-79
2021/06/01 08:32:06;;;;;;;4.15;1.70;;;27.80;76.50;;;;;;5068778;28;20036;-80
2021/06/01 08:34:32;;;;;;;3.25;1.92;;;28.00;75.20;;;;;;5073147;28;20388;-79
2021/06/01 08:36:58;;;;;;;4.45;1.92;;;28.10;74.80;;;;;;5073349;28;20484;-79
2021/06/01 08:39:26;;;;;;;1.70;1.60;;;28.30;74.90;;;;;;5072821;28;20028;-79
2021/06/01 08:41:56;;;;;;;2.58;1.40;;;28.20;75.10;;;;;;5072840;28;20119;-79
2021/06/01 08:44:23;;;;;;;4.35;1.80;;;28.20;76.80;;;;;;5071903;28;20519;-79
2021/06/01 08:46:51;;;;;;;4.63;1.73;;;28.60;75.30;;;;;;5070686;28;20068;-79
2021/06/01 08:49:18;;;;;;;2.85;1.85;;;29.10;74.50;;;;;;5072138;28;20031;-79
2021/06/01 08:51:44;;;;;;;2.65;1.98;;;29.40;72.10;;;;;;5072326;28;20033;-79
2021/06/01 08:54:10;;;;;;;2.70;1.63;;;29.30;70.50;;;;;;5070896;28;20388;-79
2021/06/01 08:56:37;;;;;;;1.63;1.53;;;29.50;69.40;;;;;;5072842;28;20029;-79
2021/06/01 08:59:03;;;;;;;1.90;1.63;;;29.40;68.90;;;;;;5059860;28;20485;-79
2021/06/01 09:01:28;;;;;;;1.75;1.60;;;29.30;69.90;;;;;;5069500;28;20031;-79
2021/06/01 09:03:57;;;;;;;2.43;2.23;;;29.20;67.80;;;;;;5071287;28;20032;-79
2021/06/01 09:22:42;;;;;;;4.55;1.33;;;28.90;65.10;;;;;;5049546;28;20072;-79
2021/06/01 09:25:18;;;;;;;1.90;1.42;;;28.60;64.20;;;;;;5058849;28;20032;-80
2021/06/01 09:27:49;;;;;;;2.25;1.63;;;28.40;63.70;;;;;;5055161;28;20485;-78
2021/06/01 09:30:42;;;;;;;3.03;1.52;;;28.30;65.30;;;;;;5066031;28;20048;-78
2021/06/01 09:33:25;;;;;;;1.48;1.27;;;28.00;67.80;;;;;;5069739;28;20090;-79
2021/06/01 09:35:54;;;;;;;3.97;1.65;;;27.90;65.00;;;;;;5073141;28;20032;-79
2021/06/01 09:38:23;;;;;;;3.17;1.90;;;27.90;65.10;;;;;;5076199;28;20020;-78
2021/06/01 09:41:12;;;;;;;7.78;1.38;;;27.80;66.70;;;;;;5076314;28;20728;-78
2021/06/01 09:44:02;;;;;;;2.08;1.30;;;27.70;61.10;;;;;;5072078;28;20029;-78
2021/06/01 09:46:36;;;;;;;1.92;1.80;;;27.40;62.90;;;;;;5059306;28;20041;-79
2021/06/01 09:49:14;;;;;;;1.90;1.40;;;27.20;63.70;;;;;;5057127;28;20420;-79
2021/06/01 09:51:41;;;;;;;2.63;1.67;;;26.90;66.90;;;;;;5063341;28;20465;-79
2021/06/01 09:54:30;;;;;;;3.20;1.90;;;26.80;68.00;;;;;;5075994;28;20029;-79
2021/06/01 09:56:56;;;;;;;1.73;1.60;;;27.10;66.60;;;;;;5073602;28;20050;-77
2021/06/01 09:59:22;;;;;;;1.95;1.67;;;27.60;65.10;;;;;;5074125;28;20110;-79
2021/06/01 10:01:47;;;;;;;3.95;1.90;;;27.80;67.10;;;;;;5064301;28;20024;-79
2021/06/01 10:04:26;;;;;;;1.90;1.80;;;28.20;68.00;;;;;;5076939;28;20032;-78
2021/06/01 10:06:53;;;;;;;2.97;1.67;;;29.10;65.70;;;;;;5074670;28;20040;-79
2021/06/01 10:09:19;;;;;;;4.53;1.95;;;29.70;63.40;;;;;;5063548;28;20472;-79
2021/06/01 10:11:58;;;;;;;2.80;1.70;;;29.80;62.90;;;;;;5074271;28;20074;-79
2021/06/01 10:14:25;;;;;;;1.65;1.50;;;29.70;62.50;;;;;;5074676;28;20388;-79
2021/06/01 10:16:51;;;;;;;4.18;1.90;;;29.40;64.60;;;;;;5068154;28;20029;-82
2021/06/01 10:19:17;;;;;;;3.47;1.80;;;29.40;63.20;;;;;;5075403;28;20025;-86
2021/06/01 10:21:44;;;;;;;3.75;1.52;;;29.50;65.00;;;;;;5076741;28;20033;-85
2021/06/01 10:24:13;;;;;;;2.15;1.30;;;29.50;61.10;;;;;;5076821;28;20032;-83
2021/06/01 10:26:42;;;;;;;1.85;1.45;;;28.90;60.10;;;;;;5072461;28;20028;-85
2021/06/01 10:29:08;;;;;;;4.47;1.63;;;28.70;58.80;;;;;;5070736;28;20048;-84
2021/06/01 10:31:35;;;;;;;1.88;1.52;;;29.10;60.30;;;;;;5077250;28;20021;-87
2021/06/01 10:34:22;;;;;;;2.15;1.60;;;29.60;57.30;;;;;;5077629;28;20227;-84
2021/06/01 10:50:40;;;;;;;;;;;29.50;60.50;;;;;;5056181;28;20091;-77
2021/06/01 10:53:15;;;;;;;2.10;1.90;;;29.50;61.20;;;;;;5054769;28;19999;-77
2021/06/01 10:56:02;;;;;;;2.17;1.63;;;29.20;63.00;;;;;;5054893;28;20029;-77
2021/06/01 10:58:42;;;;;;;2.00;1.80;;;28.90;61.10;;;;;;5066852;28;20032;-76
2021/06/01 11:04:13;;;;;;;2.80;1.45;;;28.20;63.50;;;;;;5072914;28;20077;-77
2021/06/01 11:07:11;;;;;;;3.72;1.52;;;28.10;63.40;;;;;;5074501;28;20484;-77
2021/06/01 11:09:37;;;;;;;6.18;1.90;;;28.10;63.80;;;;;;5075654;28;20538;-78
2021/06/01 11:12:19;;;;;;;3.20;1.77;;;27.90;62.60;;;;;;5074159;28;20033;-78
2021/06/01 11:14:50;;;;;;;2.38;2.08;;;27.80;63.80;;;;;;5075375;28;20762;-78
2021/06/01 11:17:35;;;;;;;4.97;2.17;;;27.60;65.20;;;;;;5075376;28;20473;-77
2021/06/01 11:20:12;;;;;;;1.80;1.50;;;27.40;60.70;;;;;;5072437;28;20395;-78
2021/06/01 11:33:30;;;;;;;1.85;1.67;;;27.40;60.40;;;;;;5075005;28;20512;-77
2021/06/01 11:36:03;;;;;;;2.17;1.40;;;27.60;60.50;;;;;;5074659;28;20499;-78
2021/06/01 11:43:54;;;;;;;2.00;1.80;;;27.80;61.80;;;;;;5069259;28;20086;-75
2021/06/01 11:51:52;;;;;;;3.00;1.50;;;28.00;56.50;;;;;;5073069;28;20191;-78
2021/06/01 11:54:18;;;;;;;3.10;1.48;;;28.00;56.70;;;;;;5073327;28;20116;-77
2021/06/01 12:05:23;;;;;;;6.85;1.50;;;28.20;60.70;;;;;;5073606;28;20047;-78
2021/06/01 12:19:04;;;;;;;4.00;0.95;;;28.10;52.80;;;;;;5053814;28;20039;-81
2021/06/01 12:21:36;;;;;;;1.38;1.13;;;28.20;54.50;;;;;;5055729;28;20021;-81
2021/06/01 12:24:30;;;;;;;2.42;1.48;;;28.20;56.20;;;;;;5062827;28;20488;-79
2021/06/01 12:32:29;;;;;;;3.67;1.23;;;28.50;56.00;;;;;;5074649;28;20102;-79
2021/06/01 13:20:38;;;;;;;3.42;1.40;;;28.60;58.10;;;;;;5074633;28;20098;-77
2021/06/01 13:32:07;;;;;;;2.05;1.50;;;29.00;58.80;;;;;;5019711;28;20088;-78
2021/06/01 13:46:09;;;;;;;4.63;1.40;;;28.70;56.70;;;;;;5018768;28;20449;-75
2021/06/01 13:49:02;;;;;;;4.97;1.90;;;28.60;57.20;;;;;;5022767;28;20025;-75
2021/06/01 13:56:29;;;;;;;2.88;1.40;;;28.30;57.30;;;;;;5022232;28;20084;-76
2021/06/01 13:59:05;;;;;;;1.65;1.55;;;28.40;58.50;;;;;;5022119;28;20378;-74
2021/06/01 14:19:24;;;;;;;3.60;1.60;;;28.40;59.70;;;;;;5010093;28;20044;-76
2021/06/01 14:32:13;;;;;;;4.05;1.75;;;28.60;59.30;;;;;;4996043;28;20035;-84
2021/06/01 15:31:33;;;;;;;2.20;2.00;;;29.20;60.70;;;;;;4996357;28;20030;-76
2021/06/01 15:47:52;;;;;;;1.85;1.25;;;30.20;58.20;;;;;;4996128;28;20044;-77
2021/06/01 15:59:04;;;;;;;1.65;1.55;;;30.50;56.80;;;;;;4995998;28;20081;-78
2021/06/01 16:13:02;;;;;;;3.60;1.77;;;30.60;56.60;;;;;;4994892;28;20041;-77
2021/06/01 16:21:21;;;;;;;4.73;1.60;;;30.80;56.00;;;;;;4994894;28;20045;-76
2021/06/01 17:04:55;;;;;;;1.60;1.50;;;26.20;60.00;;;;;;4993544;28;20072;-77
2021/06/01 17:13:03;;;;;;;2.33;1.60;;;26.40;59.50;;;;;;4994232;28;20104;-76
2021/06/01 17:15:29;;;;;;;1.63;1.52;;;26.40;59.30;;;;;;4994068;28;20495;-78
2021/06/01 17:18:04;;;;;;;1.92;1.38;;;26.40;59.20;;;;;;4993535;28;20027;-76
2021/06/01 17:21:01;;;;;;;5.43;1.75;;;26.50;60.10;;;;;;4992865;28;20027;-77
2021/06/01 17:36:59;;;;;;;1.85;1.75;;;26.30;59.00;;;;;;4994167;28;20873;-76
2021/06/01 17:39:25;;;;;;;2.67;1.40;;;26.30;59.60;;;;;;4988287;28;20093;-77
2021/06/01 17:41:57;;;;;;;2.35;1.60;;;26.20;58.80;;;;;;4990209;28;20076;-77
2021/06/01 17:44:28;;;;;;;3.67;1.60;;;26.10;59.40;;;;;;4988423;28;20019;-76
2021/06/01 17:47:00;;;;;;;1.58;1.48;;;26.10;59.80;;;;;;4993563;28;20026;-77
2021/06/01 17:49:30;;;;;;;2.38;1.70;;;26.10;60.20;;;;;;4989988;28;20027;-77
2021/06/01 17:51:58;;;;;;;2.13;1.70;;;26.10;60.00;;;;;;4985450;28;20054;-77
2021/06/01 17:54:34;;;;;;;3.22;1.50;;;26.00;60.50;;;;;;4992727;28;20034;-76
2021/06/01 17:57:02;;;;;;;1.77;1.55;;;26.00;60.10;;;;;;4994061;28;20092;-75
2021/06/01 17:59:28;;;;;;;3.42;1.75;;;25.90;60.50;;;;;;4985909;28;20049;-77
2021/06/01 18:01:55;;;;;;;4.85;1.85;;;25.90;60.80;;;;;;4996663;28;20379;-77
2021/06/01 18:04:24;;;;;;;2.75;2.03;;;25.90;61.00;;;;;;4992314;28;20061;-77
2021/06/01 18:06:54;;;;;;;1.92;1.40;;;26.00;61.70;;;;;;4998627;28;20026;-77
2021/06/01 18:37:20;;;;;;;4.50;1.50;;;25.60;62.60;;;;;;4988230;28;20092;-77
2021/06/01 19:21:49;;;;;;;1.85;1.65;;;24.60;62.30;;;;;;4981878;28;20034;-76
2021/06/01 19:24:31;;;;;;;2.08;1.67;;;24.40;62.80;;;;;;5002513;28;20041;-78
2021/06/01 19:50:15;;;;;;;8.90;1.73;;;23.40;65.10;;;;;;5015554;28;20094;-77
2021/06/01 19:52:52;;;;;;;2.63;1.42;;;23.30;65.40;;;;;;5000853;28;20065;-78
2021/06/01 19:55:20;;;;;;;3.80;1.30;;;23.10;65.80;;;;;;4995595;28;20018;-76
2021/06/01 19:57:47;;;;;;;2.40;1.40;;;23.00;66.10;;;;;;4993506;28;20019;-77
2021/06/01 20:00:14;;;;;;;2.70;1.75;;;22.90;66.10;;;;;;4994380;28;20022;-77
2021/06/01 20:02:40;;;;;;;3.60;1.52;;;22.80;66.20;;;;;;4994837;28;20038;-78
2021/06/01 20:05:11;;;;;;;2.60;1.50;;;22.80;66.40;;;;;;4993986;28;20033;-78
2021/06/01 20:07:37;;;;;;;6.93;1.70;;;22.70;66.50;;;;;;4998532;28;20335;-77
2021/06/01 20:10:06;;;;;;;2.45;1.63;;;22.70;67.10;;;;;;4991668;28;20014;-76
2021/06/01 20:12:31;;;;;;;2.67;1.80;;;22.60;67.10;;;;;;4995415;28;20033;-79
2021/06/01 20:14:58;;;;;;;2.05;1.70;;;22.50;67.40;;;;;;5001014;28;20526;-77
2021/06/01 20:17:41;;;;;;;2.47;1.67;;;22.40;67.50;;;;;;4981505;28;20026;-77